Time;durP1;ratioP1;P1;durP2;ratioP2;P2;SDS_P1;SDS_P2;PMS_P1;PMS_P2;Temp;Humidity;BMP_temperature;BMP_pressure;BME280_temperature;BME280_humidity;BME280_pressure;Samples;Min_cycle;Max_cycle;Signal;HPM_P1;HPM_P2
2022/07/29 00:01:41;;;;;;;7.53;5.90;;;;;;;;;;5051061;28;20055;-68
2022/07/29 00:04:08;;;;;;;8.27;5.93;;;;;;;;;;5051267;28;20044;-68
2022/07/29 00:06:36;;;;;;;8.50;6.30;;;;;;;;;;5051128;28;20657;-68
2022/07/29 00:09:03;;;;;;;8.60;6.03;;;;;;;;;;5051101;28;20047;-69
2022/07/29 00:11:31;;;;;;;9.00;6.53;;;;;;;;;;5119644;27;20410;-68
2022/07/29 00:13:59;;;;;;;11.10;5.82;;;;;;;;;;5051065;28;20059;-68
2022/07/29 00:16:26;;;;;;;11.73;6.35;;;;;;;;;;5119523;27;20052;-68
2022/07/29 00:18:54;;;;;;;18.77;6.57;;;;;;;;;;5050964;28;20045;-68
2022/07/29 00:21:21;;;;;;;12.10;6.88;;;;;;;;;;5050973;28;20063;-68
2022/07/29 00:23:49;;;;;;;9.80;6.07;;;;;;;;;;5050833;28;20097;-69
2022/07/29 00:26:16;;;;;;;8.57;6.25;;;;;;;;;;5050764;28;20060;-68
2022/07/29 00:28:44;;;;;;;8.27;6.10;;;;;;;;;;5050980;28;20068;-69
2022/07/29 00:31:11;;;;;;;7.18;6.05;;;;;;;;;;5050813;28;20037;-69
2022/07/29 00:33:39;;;;;;;6.95;6.18;;;;;;;;;;5050731;28;20044;-68
2022/07/29 00:36:06;;;;;;;8.52;5.80;;;;;;;;;;5050773;28;20383;-68
2022/07/29 00:38:34;;;;;;;9.20;6.28;;;;;;;;;;5050638;28;20044;-68
2022/07/29 00:41:01;;;;;;;7.28;6.43;;;;;;;;;;5050614;28;20533;-68
2022/07/29 00:43:29;;;;;;;9.18;6.30;;;;;;;;;;5050802;28;20049;-69
2022/07/29 00:45:56;;;;;;;10.02;6.45;;;;;;;;;;5050500;28;20081;-68
2022/07/29 00:48:24;;;;;;;7.65;6.22;;;;;;;;;;5050791;28;20041;-68
2022/07/29 00:50:52;;;;;;;8.40;6.75;;;;;;;;;;5050296;28;20047;-68
2022/07/29 00:53:20;;;;;;;10.55;6.80;;;;;;;;;;5050568;28;20045;-68
2022/07/29 00:55:48;;;;;;;8.27;6.63;;;;;;;;;;5050477;27;20094;-68
2022/07/29 00:58:18;;;;;;;11.38;9.02;;;;;;;;;;5050341;28;20082;-68
2022/07/29 01:00:46;;;;;;;7.93;6.72;;;;;;;;;;5049792;28;20037;-69
2022/07/29 01:03:13;;;;;;;7.25;6.55;;;;;;;;;;5050210;28;20041;-68
2022/07/29 01:05:42;;;;;;;9.73;6.40;;;;;;;;;;5050301;28;20052;-68
2022/07/29 01:08:17;;;;;;;8.68;6.88;;;;;;;;;;5050256;28;20109;-68
2022/07/29 01:10:46;;;;;;;9.98;8.98;;;;;;;;;;5050163;28;20054;-68
2022/07/29 01:13:15;;;;;;;7.90;6.32;;;;;;;;;;5117543;27;20436;-68
2022/07/29 01:15:48;;;;;;;11.70;8.10;;;;;;;;;;5118410;27;20037;-68
2022/07/29 01:18:23;;;;;;;8.95;7.35;;;;;;;;;;5050036;28;20124;-68
2022/07/29 01:21:16;;;;;;;9.20;6.55;;;;;;;;;;5050072;28;20509;-68
2022/07/29 01:24:00;;;;;;;7.95;6.57;;;;;;;;;;5057496;28;20045;-68
2022/07/29 01:26:38;;;;;;;9.93;6.53;;;;;;;;;;5049902;28;20041;-68
2022/07/29 01:29:25;;;;;;;10.38;8.48;;;;;;;;;;5049965;28;20041;-68
2022/07/29 01:32:04;;;;;;;8.82;7.43;;;;;;;;;;5049840;28;20128;-68
2022/07/29 01:34:52;;;;;;;10.85;8.02;;;;;;;;;;5049916;28;20033;-68
2022/07/29 01:37:25;;;;;;;9.23;6.72;;;;;;;;;;5049700;28;20041;-68
2022/07/29 01:39:55;;;;;;;9.13;6.40;;;;;;;;;;5049556;28;20433;-68
2022/07/29 01:42:31;;;;;;;8.38;6.47;;;;;;;;;;5049670;28;20037;-68
2022/07/29 01:44:59;;;;;;;8.43;6.75;;;;;;;;;;5049665;28;20040;-68
2022/07/29 01:47:32;;;;;;;9.30;6.75;;;;;;;;;;5049746;28;20053;-68
2022/07/29 01:50:04;;;;;;;9.13;7.22;;;;;;;;;;5049593;28;20061;-68
2022/07/29 01:52:34;;;;;;;9.85;6.63;;;;;;;;;;5049563;28;20119;-68
2022/07/29 01:55:05;;;;;;;6.47;5.85;;;;;;;;;;5049515;28;20033;-67
2022/07/29 01:57:34;;;;;;;8.82;6.20;;;;;;;;;;5117806;27;20068;-69
2022/07/29 02:00:03;;;;;;;8.63;6.65;;;;;;;;;;5049342;28;20043;-69
2022/07/29 02:02:39;;;;;;;6.93;6.22;;;;;;;;;;5049441;28;20097;-69
2022/07/29 02:05:08;;;;;;;9.73;6.35;;;;;;;;;;5117841;28;20120;-68
2022/07/29 02:07:37;;;;;;;8.70;6.43;;;;;;;;;;5049329;28;20407;-68
2022/07/29 02:10:06;;;;;;;16.73;12.73;;;;;;;;;;5049847;28;20049;-68
2022/07/29 02:12:35;;;;;;;11.10;6.50;;;;;;;;;;5052931;28;20043;-68
2022/07/29 02:15:05;;;;;;;10.30;5.85;;;;;;;;;;5052970;28;20394;-68
2022/07/29 02:17:44;;;;;;;7.30;6.43;;;;;;;;;;5122128;27;20140;-67
2022/07/29 02:20:12;;;;;;;11.40;7.90;;;;;;;;;;5052913;28;20122;-68
2022/07/29 02:22:41;;;;;;;13.90;6.82;;;;;;;;;;5052746;28;20037;-68
2022/07/29 02:25:09;;;;;;;20.45;6.82;;;;;;;;;;5052753;28;20072;-68
2022/07/29 02:27:42;;;;;;;13.77;6.90;;;;;;;;;;5052631;28;20135;-68
2022/07/29 02:30:10;;;;;;;9.77;7.32;;;;;;;;;;5052682;28;20041;-68
2022/07/29 02:32:40;;;;;;;12.75;8.57;;;;;;;;;;5052995;28;20440;-68
2022/07/29 02:35:09;;;;;;;10.75;8.00;;;;;;;;;;5052502;28;20137;-68
2022/07/29 02:37:38;;;;;;;17.70;11.60;;;;;;;;;;5052554;28;20041;-68
2022/07/29 02:40:06;;;;;;;12.23;8.02;;;;;;;;;;5052449;28;20044;-68
2022/07/29 02:42:35;;;;;;;13.75;7.32;;;;;;;;;;5052414;28;20094;-68
2022/07/29 02:45:03;;;;;;;11.27;6.75;;;;;;;;;;5052507;28;20044;-68
2022/07/29 02:47:31;;;;;;;11.75;6.95;;;;;;;;;;5052353;28;20075;-68
2022/07/29 02:50:43;;;;;;;8.65;6.65;;;;;;;;;;5052348;28;20049;-68
2022/07/29 02:53:23;;;;;;;13.63;9.88;;;;;;;;;;5073537;28;20044;-68
2022/07/29 02:55:55;;;;;;;13.23;6.97;;;;;;;;;;5054670;28;20109;-68
2022/07/29 02:58:31;;;;;;;12.15;6.82;;;;;;;;;;5052157;28;20069;-68
2022/07/29 03:01:02;;;;;;;11.98;7.60;;;;;;;;;;5121278;27;20440;-68
2022/07/29 03:03:32;;;;;;;14.55;7.28;;;;;;;;;;5051633;28;20053;-68
2022/07/29 03:06:01;;;;;;;14.23;7.38;;;;;;;;;;5052287;28;20044;-68
2022/07/29 03:08:30;;;;;;;14.18;7.55;;;;;;;;;;5052049;28;20106;-68
2022/07/29 03:10:58;;;;;;;11.73;7.75;;;;;;;;;;5052190;28;20116;-68
2022/07/29 03:13:26;;;;;;;20.77;7.22;;;;;;;;;;5052068;28;20044;-68
2022/07/29 03:15:54;;;;;;;12.43;7.55;;;;;;;;;;5051923;28;20049;-68
2022/07/29 03:18:22;;;;;;;11.35;7.60;;;;;;;;;;5051953;28;20486;-68
2022/07/29 03:20:49;;;;;;;9.90;7.78;;;;;;;;;;5051779;28;20056;-68
2022/07/29 03:23:22;;;;;;;7.25;6.57;;;;;;;;;;5050660;28;20034;-68
2022/07/29 03:25:50;;;;;;;9.32;7.43;;;;;;;;;;5051580;28;20049;-67
2022/07/29 03:28:18;;;;;;;12.50;7.18;;;;;;;;;;5120220;27;20045;-70
2022/07/29 03:30:45;;;;;;;9.95;7.15;;;;;;;;;;5052067;28;20471;-67
2022/07/29 03:33:14;;;;;;;10.45;7.43;;;;;;;;;;5120770;27;20087;-69
2022/07/29 03:35:42;;;;;;;9.20;7.13;;;;;;;;;;5051140;28;20060;-69
2022/07/29 03:38:09;;;;;;;10.98;7.60;;;;;;;;;;5051694;28;20045;-67
2022/07/29 03:40:50;;;;;;;11.27;7.40;;;;;;;;;;5118919;27;20116;-68
2022/07/29 03:43:19;;;;;;;10.00;7.68;;;;;;;;;;5051486;28;20110;-68
2022/07/29 03:45:48;;;;;;;10.27;7.20;;;;;;;;;;5051254;28;20045;-68
2022/07/29 03:48:18;;;;;;;10.85;7.60;;;;;;;;;;5051396;28;20041;-68
2022/07/29 03:50:46;;;;;;;12.07;7.95;;;;;;;;;;5032629;28;20133;-68
2022/07/29 03:53:14;;;;;;;11.05;8.07;;;;;;;;;;5031690;28;20041;-68
2022/07/29 03:55:42;;;;;;;11.43;8.27;;;;;;;;;;5031566;28;20431;-68
2022/07/29 03:58:11;;;;;;;8.82;7.10;;;;;;;;;;5031616;28;20051;-68
2022/07/29 04:00:40;;;;;;;10.25;9.13;;;;;;;;;;5031357;28;20045;-68
2022/07/29 04:03:07;;;;;;;10.15;8.40;;;;;;;;;;5031399;28;20046;-68
2022/07/29 04:05:38;;;;;;;11.45;7.53;;;;;;;;;;5031378;28;20045;-68
2022/07/29 04:08:05;;;;;;;12.27;7.72;;;;;;;;;;5031100;28;20041;-68
2022/07/29 04:10:33;;;;;;;12.13;8.60;;;;;;;;;;5031127;28;20070;-68
2022/07/29 04:13:02;;;;;;;14.35;9.90;;;;;;;;;;5031265;28;20091;-68
2022/07/29 04:15:29;;;;;;;13.30;8.77;;;;;;;;;;5031332;28;20049;-68
2022/07/29 04:17:58;;;;;;;12.25;9.77;;;;;;;;;;5031235;28;20045;-68
2022/07/29 04:20:26;;;;;;;10.43;7.88;;;;;;;;;;5031347;28;20117;-68
2022/07/29 04:22:54;;;;;;;10.05;7.95;;;;;;;;;;5030079;28;20049;-69
2022/07/29 04:25:21;;;;;;;11.23;8.45;;;;;;;;;;5029324;28;20045;-68
2022/07/29 04:28:01;;;;;;;14.82;8.85;;;;;;;;;;5029158;28;20049;-68
2022/07/29 04:30:29;;;;;;;15.23;9.90;;;;;;;;;;5030923;28;20122;-69
2022/07/29 04:32:57;;;;;;;12.45;8.43;;;;;;;;;;5030427;28;20049;-68
2022/07/29 04:35:24;;;;;;;12.35;8.27;;;;;;;;;;5031063;28;20082;-68
2022/07/29 04:37:52;;;;;;;10.70;7.57;;;;;;;;;;5030626;28;20494;-68
2022/07/29 04:40:19;;;;;;;9.50;8.15;;;;;;;;;;5028876;28;20037;-69
2022/07/29 04:42:47;;;;;;;10.82;8.18;;;;;;;;;;5028714;28;20041;-69
2022/07/29 04:45:16;;;;;;;11.50;8.10;;;;;;;;;;5029274;28;20064;-68
2022/07/29 04:47:49;;;;;;;11.98;7.55;;;;;;;;;;5028865;28;20106;-69
2022/07/29 04:50:16;;;;;;;7.70;6.90;;;;;;;;;;5028922;28;20046;-69
2022/07/29 04:52:44;;;;;;;9.45;6.13;;;;;;;;;;5028661;28;20037;-69
2022/07/29 04:55:11;;;;;;;9.20;7.05;;;;;;;;;;5030488;28;20052;-68
2022/07/29 04:57:39;;;;;;;8.68;6.70;;;;;;;;;;5030537;28;20037;-68
2022/07/29 05:00:07;;;;;;;8.77;6.85;;;;;;;;;;5030453;28;20041;-69
2022/07/29 05:02:34;;;;;;;8.40;6.85;;;;;;;;;;5030331;28;20041;-68
2022/07/29 05:05:02;;;;;;;10.05;6.45;;;;;;;;;;5030467;28;20029;-69
2022/07/29 05:07:29;;;;;;;8.73;6.43;;;;;;;;;;5030392;28;20479;-69
2022/07/29 05:09:57;;;;;;;11.63;6.65;;;;;;;;;;5038919;28;20112;-68
2022/07/29 05:12:25;;;;;;;8.10;5.90;;;;;;;;;;5047342;28;20033;-70
2022/07/29 05:14:53;;;;;;;8.38;6.30;;;;;;;;;;5049738;28;20033;-69
2022/07/29 05:17:20;;;;;;;7.38;6.18;;;;;;;;;;5049968;28;20037;-69
2022/07/29 05:19:48;;;;;;;8.20;6.03;;;;;;;;;;5049776;28;20086;-68
2022/07/29 05:22:15;;;;;;;7.13;5.78;;;;;;;;;;5050928;28;20048;-68
2022/07/29 05:24:43;;;;;;;8.02;5.90;;;;;;;;;;5050133;28;20041;-70
2022/07/29 05:27:10;;;;;;;9.95;6.10;;;;;;;;;;5049983;28;20048;-69
2022/07/29 05:29:38;;;;;;;6.75;5.85;;;;;;;;;;5050001;28;20049;-69
2022/07/29 05:32:11;;;;;;;8.30;5.63;;;;;;;;;;5050318;28;20041;-69
2022/07/29 05:34:39;;;;;;;6.63;5.43;;;;;;;;;;5049886;28;20198;-70
2022/07/29 05:37:19;;;;;;;5.97;5.32;;;;;;;;;;5049923;28;20097;-70
2022/07/29 05:39:46;;;;;;;7.28;5.38;;;;;;;;;;5049941;28;20463;-69
2022/07/29 05:42:22;;;;;;;6.60;5.72;;;;;;;;;;5049954;28;20116;-70
2022/07/29 05:44:50;;;;;;;7.95;5.55;;;;;;;;;;5048809;28;20045;-70
2022/07/29 05:47:18;;;;;;;6.68;5.03;;;;;;;;;;5049630;28;20172;-69
2022/07/29 05:49:46;;;;;;;10.40;7.47;;;;;;;;;;5049747;28;20486;-69
2022/07/29 05:52:13;;;;;;;8.70;6.90;;;;;;;;;;5049896;27;20073;-70
2022/07/29 05:54:41;;;;;;;8.30;5.70;;;;;;;;;;5049612;28;20045;-69
2022/07/29 05:57:08;;;;;;;6.70;5.53;;;;;;;;;;5049504;28;20056;-70
2022/07/29 05:59:36;;;;;;;10.73;5.95;;;;;;;;;;5049650;28;20421;-69
2022/07/29 06:02:07;;;;;;;6.97;5.13;;;;;;;;;;5049476;28;20041;-70
2022/07/29 06:04:35;;;;;;;7.78;5.35;;;;;;;;;;5049587;28;20052;-70
2022/07/29 06:07:02;;;;;;;7.30;6.47;;;;;;;;;;5049502;28;20061;-70
2022/07/29 06:09:30;;;;;;;6.63;5.50;;;;;;;;;;5117723;28;20113;-70
2022/07/29 06:11:58;;;;;;;6.50;4.63;;;;;;;;;;5049502;28;20089;-70
2022/07/29 06:14:29;;;;;;;7.03;4.45;;;;;;;;;;5118354;28;20432;-70
2022/07/29 06:16:56;;;;;;;6.72;4.25;;;;;;;;;;5049392;28;20045;-70
2022/07/29 06:19:24;;;;;;;8.15;4.63;;;;;;;;;;5049274;28;20498;-70
2022/07/29 06:21:51;;;;;;;7.03;4.00;;;;;;;;;;5049297;28;20063;-70
2022/07/29 06:24:19;;;;;;;7.30;4.07;;;;;;;;;;5049256;28;20479;-69
2022/07/29 06:26:47;;;;;;;7.18;4.22;;;;;;;;;;5117705;28;20068;-69
2022/07/29 06:29:14;;;;;;;10.68;4.97;;;;;;;;;;5049045;28;20048;-70
2022/07/29 06:31:42;;;;;;;4.95;4.13;;;;;;;;;;5049533;27;20405;-70
2022/07/29 06:34:09;;;;;;;8.27;3.83;;;;;;;;;;5049114;28;20041;-71
2022/07/29 06:36:38;;;;;;;5.75;4.00;;;;;;;;;;5117924;28;20105;-70
2022/07/29 06:39:07;;;;;;;9.02;4.13;;;;;;;;;;5049104;28;20566;-71
2022/07/29 06:41:35;;;;;;;5.85;4.00;;;;;;;;;;5049126;28;20045;-70
2022/07/29 06:44:09;;;;;;;5.28;3.92;;;;;;;;;;5049048;28;20044;-70
2022/07/29 06:46:36;;;;;;;6.90;3.35;;;;;;;;;;5049046;28;20061;-71
2022/07/29 06:49:04;;;;;;;5.60;3.45;;;;;;;;;;5048825;28;20529;-68
2022/07/29 06:51:32;;;;;;;5.13;3.30;;;;;;;;;;5048829;28;20041;-67
2022/07/29 06:54:00;;;;;;;7.75;3.30;;;;;;;;;;5048813;28;20041;-68
2022/07/29 06:56:33;;;;;;;5.93;3.53;;;;;;;;;;5049788;28;20037;-68
2022/07/29 06:59:10;;;;;;;6.35;3.50;;;;;;;;;;5052224;28;20041;-71
2022/07/29 07:01:38;;;;;;;5.50;3.72;;;;;;;;;;5052526;28;20069;-70
2022/07/29 07:04:08;;;;;;;5.85;3.15;;;;;;;;;;5052212;28;20528;-70
2022/07/29 07:06:36;;;;;;;7.43;4.10;;;;;;;;;;5051998;28;20041;-70
2022/07/29 07:09:04;;;;;;;5.97;3.40;;;;;;;;;;5052006;28;20045;-70
2022/07/29 07:11:31;;;;;;;5.07;3.20;;;;;;;;;;5051989;28;20535;-70
2022/07/29 07:13:59;;;;;;;4.32;3.10;;;;;;;;;;5120656;27;20045;-70
2022/07/29 07:16:40;;;;;;;5.00;3.20;;;;;;;;;;5112623;27;20116;-70
2022/07/29 07:19:08;;;;;;;8.80;3.53;;;;;;;;;;5052009;28;20097;-71
2022/07/29 07:21:36;;;;;;;6.25;3.17;;;;;;;;;;5121025;27;20041;-71
2022/07/29 07:24:03;;;;;;;3.70;2.92;;;;;;;;;;5051950;28;20049;-71
2022/07/29 07:26:32;;;;;;;3.70;2.92;;;;;;;;;;5051778;28;20033;-70
2022/07/29 07:29:00;;;;;;;4.18;2.90;;;;;;;;;;5051827;28;20037;-70
2022/07/29 07:31:27;;;;;;;4.93;3.25;;;;;;;;;;5051138;28;20037;-70
2022/07/29 07:33:55;;;;;;;5.47;3.38;;;;;;;;;;5051697;28;20041;-70
2022/07/29 07:36:23;;;;;;;4.55;2.90;;;;;;;;;;5051625;28;20149;-71
2022/07/29 07:38:50;;;;;;;3.67;3.00;;;;;;;;;;5051556;28;20045;-71
2022/07/29 07:41:18;;;;;;;6.13;2.75;;;;;;;;;;5051417;28;20175;-74
2022/07/29 07:43:45;;;;;;;6.85;3.25;;;;;;;;;;5049582;28;20695;-71
2022/07/29 07:46:13;;;;;;;3.85;2.90;;;;;;;;;;5043069;28;20077;-72
2022/07/29 07:48:41;;;;;;;5.60;3.00;;;;;;;;;;5029736;28;20056;-72
2022/07/29 07:51:08;;;;;;;3.38;2.70;;;;;;;;;;5030240;28;20042;-72
2022/07/29 07:53:36;;;;;;;6.05;3.58;;;;;;;;;;5030159;28;20041;-71
2022/07/29 07:56:06;;;;;;;7.93;3.17;;;;;;;;;;5098064;28;20053;-71
2022/07/29 07:58:38;;;;;;;3.38;2.80;;;;;;;;;;5030196;28;20053;-71
2022/07/29 08:01:06;;;;;;;5.43;3.20;;;;;;;;;;5031112;28;20037;-72
2022/07/29 08:03:34;;;;;;;8.20;2.80;;;;;;;;;;5031025;28;20499;-72
2022/07/29 08:06:01;;;;;;;5.40;3.20;;;;;;;;;;5031435;28;20038;-72
2022/07/29 08:08:29;;;;;;;7.00;5.38;;;;;;;;;;5039887;28;20038;-73
2022/07/29 08:10:58;;;;;;;8.05;2.97;;;;;;;;;;5031013;28;20042;-73
2022/07/29 08:13:31;;;;;;;6.55;3.45;;;;;;;;;;5095535;28;20038;-72
2022/07/29 08:16:01;;;;;;;5.45;3.22;;;;;;;;;;5030957;28;20040;-73
2022/07/29 08:18:30;;;;;;;4.75;3.10;;;;;;;;;;5031111;28;20045;-74
2022/07/29 08:20:58;;;;;;;3.20;2.90;;;;;;;;;;5030993;28;20050;-72
2022/07/29 08:23:26;;;;;;;5.22;3.05;;;;;;;;;;5030751;28;20080;-72
2022/07/29 08:26:12;;;;;;;5.63;3.13;;;;;;;;;;5030952;28;20065;-73
2022/07/29 08:28:40;;;;;;;7.13;3.72;;;;;;;;;;5030569;28;20040;-73
2022/07/29 08:31:07;;;;;;;6.90;3.33;;;;;;;;;;5030382;28;20045;-73
2022/07/29 08:33:35;;;;;;;5.70;3.28;;;;;;;;;;5030572;28;20049;-73
2022/07/29 08:36:03;;;;;;;14.77;3.90;;;;;;;;;;5030570;28;20049;-72
2022/07/29 08:38:30;;;;;;;4.03;3.13;;;;;;;;;;5030631;28;20045;-73
2022/07/29 08:40:59;;;;;;;4.10;3.30;;;;;;;;;;5030689;28;20069;-73
2022/07/29 08:43:26;;;;;;;7.03;2.90;;;;;;;;;;5040031;28;20060;-70
2022/07/29 08:45:54;;;;;;;4.65;3.50;;;;;;;;;;5047697;28;20041;-67
2022/07/29 08:48:22;;;;;;;5.22;4.00;;;;;;;;;;5038295;28;20041;-68
2022/07/29 08:50:56;;;;;;;5.72;3.10;;;;;;;;;;5031322;28;20045;-68
2022/07/29 08:53:26;;;;;;;6.13;3.03;;;;;;;;;;5030473;28;20410;-69
2022/07/29 08:55:54;;;;;;;4.68;3.55;;;;;;;;;;5030352;28;20040;-69
2022/07/29 08:58:22;;;;;;;6.55;3.10;;;;;;;;;;5030451;28;20030;-68
2022/07/29 09:00:53;;;;;;;5.43;3.00;;;;;;;;;;5030131;28;20495;-67
2022/07/29 09:03:26;;;;;;;3.70;2.95;;;;;;;;;;5030481;28;20044;-68
2022/07/29 09:05:54;;;;;;;4.70;3.08;;;;;;;;;;5097995;28;20049;-67
2022/07/29 09:08:22;;;;;;;5.63;3.17;;;;;;;;;;5030215;28;20040;-68
2022/07/29 09:10:50;;;;;;;5.03;3.80;;;;;;;;;;5030516;28;20045;-70
2022/07/29 09:13:17;;;;;;;4.95;3.30;;;;;;;;;;5097025;28;20046;-68
2022/07/29 09:15:45;;;;;;;5.43;3.13;;;;;;;;;;5030075;28;20037;-70
2022/07/29 09:18:13;;;;;;;3.83;3.13;;;;;;;;;;5030140;28;20041;-74
2022/07/29 09:24:00;;;;;;;3.95;3.15;;;;;;;;;;5029928;28;20069;-69
2022/07/29 09:26:35;;;;;;;4.25;2.80;;;;;;;;;;5097801;28;20094;-70
2022/07/29 09:29:10;;;;;;;4.20;3.13;;;;;;;;;;5029676;28;20070;-71
2022/07/29 09:31:39;;;;;;;5.57;3.10;;;;;;;;;;5029918;28;20037;-72
2022/07/29 09:34:08;;;;;;;7.13;3.60;;;;;;;;;;5029956;28;20049;-70
2022/07/29 09:36:43;;;;;;;4.82;3.00;;;;;;;;;;5029828;28;20090;-70
2022/07/29 09:39:10;;;;;;;4.78;3.50;;;;;;;;;;5029860;28;20558;-70
2022/07/29 09:41:48;;;;;;;5.60;4.15;;;;;;;;;;5030054;28;20037;-72
2022/07/29 09:44:16;;;;;;;9.75;3.90;;;;;;;;;;5043730;28;20080;-76
2022/07/29 09:46:57;;;;;;;6.40;3.30;;;;;;;;;;5050074;28;20056;-75
2022/07/29 09:49:25;;;;;;;39.88;4.97;;;;;;;;;;5049542;28;20067;-72
2022/07/29 09:52:00;;;;;;;6.38;3.25;;;;;;;;;;5049178;28;20043;-73
2022/07/29 09:54:34;;;;;;;12.38;2.90;;;;;;;;;;5049473;28;20032;-71
2022/07/29 09:57:01;;;;;;;5.45;3.10;;;;;;;;;;5049755;28;20047;-70
2022/07/29 09:59:29;;;;;;;6.07;2.88;;;;;;;;;;5049377;28;20044;-70
2022/07/29 10:01:57;;;;;;;8.23;3.03;;;;;;;;;;5049159;28;20064;-72
2022/07/29 10:04:36;;;;;;;9.57;3.90;;;;;;;;;;5118019;28;20055;-72
2022/07/29 10:07:04;;;;;;;5.75;2.55;;;;;;;;;;5049429;28;20407;-70
2022/07/29 10:09:33;;;;;;;12.68;3.05;;;;;;;;;;5049029;28;20497;-73
2022/07/29 10:12:08;;;;;;;6.80;2.70;;;;;;;;;;5049421;28;20060;-73
2022/07/29 10:14:36;;;;;;;20.40;3.35;;;;;;;;;;5047482;28;20041;-73
2022/07/29 10:17:05;;;;;;;22.80;3.53;;;;;;;;;;5035235;28;20479;-73
2022/07/29 10:19:33;;;;;;;8.30;2.60;;;;;;;;;;5048974;28;20402;-74
2022/07/29 10:22:01;;;;;;;4.22;2.63;;;;;;;;;;5048887;28;20044;-74
2022/07/29 10:24:31;;;;;;;5.18;2.85;;;;;;;;;;5049231;27;20081;-74
2022/07/29 10:27:00;;;;;;;7.18;2.70;;;;;;;;;;5047717;28;20494;-72
2022/07/29 10:29:28;;;;;;;4.20;2.80;;;;;;;;;;5047801;28;20402;-73
2022/07/29 10:31:56;;;;;;;4.47;2.35;;;;;;;;;;5050153;28;20044;-73
2022/07/29 10:34:33;;;;;;;13.10;2.60;;;;;;;;;;5052590;28;20049;-73
2022/07/29 10:37:19;;;;;;;4.25;2.72;;;;;;;;;;5052576;28;20061;-75
2022/07/29 10:39:46;;;;;;;7.05;2.40;;;;;;;;;;5052646;28;20465;-73
2022/07/29 10:42:16;;;;;;;5.75;2.90;;;;;;;;;;5052487;28;20043;-74
2022/07/29 10:44:46;;;;;;;5.85;3.00;;;;;;;;;;5052351;28;20041;-73
2022/07/29 10:47:40;;;;;;;5.10;4.28;;;;;;;;;;5052043;28;20045;-73
2022/07/29 10:50:08;;;;;;;6.55;3.13;;;;;;;;;;5052152;27;20060;-73
2022/07/29 10:52:49;;;;;;;4.00;2.97;;;;;;;;;;5052431;28;20037;-73
2022/07/29 10:55:17;;;;;;;;;;;;;;;;;;5052893;27;20076;-72
2022/07/29 10:58:04;;;;;;;8.50;3.72;;;;;;;;;;5051966;28;19927;-73
2022/07/29 11:00:33;;;;;;;6.07;3.83;;;;;;;;;;5052046;28;20116;-73
2022/07/29 11:03:00;;;;;;;5.68;3.83;;;;;;;;;;5052142;28;20037;-72
2022/07/29 11:05:53;;;;;;;5.53;3.75;;;;;;;;;;5101192;28;20045;-73
2022/07/29 11:08:23;;;;;;;4.90;2.95;;;;;;;;;;5051681;28;20049;-72
2022/07/29 11:11:13;;;;;;;3.65;3.20;;;;;;;;;;5051966;28;20045;-71
2022/07/29 11:13:43;;;;;;;3.95;2.95;;;;;;;;;;5051818;27;20073;-72
2022/07/29 11:16:13;;;;;;;3.10;2.72;;;;;;;;;;5051861;28;20098;-73
2022/07/29 11:19:01;;;;;;;3.83;3.40;;;;;;;;;;5051830;28;20088;-72
2022/07/29 11:21:49;;;;;;;9.52;4.50;;;;;;;;;;5051656;28;20045;-72
2022/07/29 11:24:31;;;;;;;6.40;3.85;;;;;;;;;;5116471;27;20040;-72
2022/07/29 11:27:10;;;;;;;3.70;3.00;;;;;;;;;;5051725;28;20048;-73
2022/07/29 11:29:41;;;;;;;12.20;4.65;;;;;;;;;;5051553;28;20049;-72
2022/07/29 11:32:36;;;;;;;7.90;5.38;;;;;;;;;;5052271;27;20048;-72
2022/07/29 11:35:17;;;;;;;15.00;4.30;;;;;;;;;;5051431;28;20045;-72
2022/07/29 11:38:18;;;;;;;14.30;5.60;;;;;;;;;;5051422;28;20049;-71
2022/07/29 11:41:07;;;;;;;7.43;4.30;;;;;;;;;;5051710;27;20414;-70
2022/07/29 11:43:53;;;;;;;4.90;3.55;;;;;;;;;;5050176;28;20033;-70
2022/07/29 11:46:39;;;;;;;8.10;3.47;;;;;;;;;;5120448;27;20466;-70
2022/07/29 11:49:08;;;;;;;4.85;2.95;;;;;;;;;;5051100;28;20033;-70
2022/07/29 11:51:39;;;;;;;9.50;2.95;;;;;;;;;;5051046;28;20050;-70
2022/07/29 11:54:31;;;;;;;10.95;3.30;;;;;;;;;;5050999;28;20554;-70
2022/07/29 11:56:59;;;;;;;4.10;3.55;;;;;;;;;;5050964;28;20048;-70
2022/07/29 11:59:27;;;;;;;6.28;3.40;;;;;;;;;;5049057;28;20436;-70
2022/07/29 12:02:01;;;;;;;7.28;3.72;;;;;;;;;;5039252;28;20034;-69
2022/07/29 12:04:53;;;;;;;4.75;3.13;;;;;;;;;;5050983;28;20033;-69
2022/07/29 12:07:31;;;;;;;5.80;3.40;;;;;;;;;;5050608;28;20047;-69
2022/07/29 12:10:03;;;;;;;3.08;2.78;;;;;;;;;;5037149;28;20076;-69
2022/07/29 12:12:32;;;;;;;9.25;2.75;;;;;;;;;;5050864;28;20092;-70
2022/07/29 12:15:20;;;;;;;3.25;2.45;;;;;;;;;;5050722;28;20045;-70
2022/07/29 12:17:48;;;;;;;3.10;2.80;;;;;;;;;;5050784;27;20306;-69
2022/07/29 12:20:23;;;;;;;7.18;2.88;;;;;;;;;;5050577;28;20044;-70
2022/07/29 12:22:53;;;;;;;4.20;3.30;;;;;;;;;;5050665;28;20114;-67
2022/07/29 12:25:22;;;;;;;3.97;3.05;;;;;;;;;;5050530;28;20052;-70
2022/07/29 12:28:06;;;;;;;7.28;3.00;;;;;;;;;;5050426;28;20098;-70
2022/07/29 12:30:48;;;;;;;3.20;2.60;;;;;;;;;;5050385;28;20040;-69
2022/07/29 12:33:26;;;;;;;7.57;3.22;;;;;;;;;;5049849;28;20045;-70
2022/07/29 12:36:01;;;;;;;9.52;4.28;;;;;;;;;;5050250;28;20049;-68
2022/07/29 12:38:34;;;;;;;7.68;3.38;;;;;;;;;;5050046;28;20447;-71
2022/07/29 12:41:03;;;;;;;4.18;2.70;;;;;;;;;;5050356;28;20514;-71
2022/07/29 12:43:31;;;;;;;4.05;3.00;;;;;;;;;;5050115;28;20427;-71
2022/07/29 12:46:11;;;;;;;6.35;3.15;;;;;;;;;;5049923;28;20041;-71
2022/07/29 12:48:40;;;;;;;5.75;2.90;;;;;;;;;;5050337;28;20464;-69
2022/07/29 12:51:09;;;;;;;4.88;2.80;;;;;;;;;;5050080;28;20044;-68
2022/07/29 12:53:37;;;;;;;3.28;2.58;;;;;;;;;;5050104;28;20033;-69
2022/07/29 12:56:05;;;;;;;4.03;2.70;;;;;;;;;;5031195;28;20060;-68
2022/07/29 12:58:53;;;;;;;3.08;2.53;;;;;;;;;;5045534;28;20037;-68
2022/07/29 13:01:21;;;;;;;3.17;2.88;;;;;;;;;;5050082;28;20516;-71
2022/07/29 13:04:03;;;;;;;4.03;2.80;;;;;;;;;;5049731;28;20072;-69
2022/07/29 13:06:38;;;;;;;8.05;3.25;;;;;;;;;;5038668;28;20124;-69
2022/07/29 13:09:07;;;;;;;6.78;2.72;;;;;;;;;;5035667;28;20081;-69
2022/07/29 13:11:38;;;;;;;4.03;3.25;;;;;;;;;;5049880;28;20060;-70
2022/07/29 13:14:06;;;;;;;3.85;2.92;;;;;;;;;;5049814;28;20065;-70
2022/07/29 13:16:33;;;;;;;4.95;3.10;;;;;;;;;;5049894;28;20051;-70
2022/07/29 13:19:09;;;;;;;5.07;3.05;;;;;;;;;;5050194;27;20470;-70
2022/07/29 13:21:37;;;;;;;4.70;2.65;;;;;;;;;;5049661;28;20087;-70
2022/07/29 13:24:05;;;;;;;5.28;2.80;;;;;;;;;;5049715;28;20052;-70
2022/07/29 13:26:33;;;;;;;4.10;3.70;;;;;;;;;;5117693;27;20049;-70
2022/07/29 13:29:00;;;;;;;6.18;3.35;;;;;;;;;;5049814;28;20387;-70
2022/07/29 13:31:28;;;;;;;4.07;2.70;;;;;;;;;;5049436;28;20502;-70
2022/07/29 13:33:56;;;;;;;3.92;2.58;;;;;;;;;;5049575;28;20033;-70
2022/07/29 13:36:23;;;;;;;4.03;2.92;;;;;;;;;;5117713;27;20045;-70
2022/07/29 13:38:51;;;;;;;4.63;3.08;;;;;;;;;;5049578;28;20033;-70
2022/07/29 13:41:18;;;;;;;6.50;3.50;;;;;;;;;;5049350;28;20040;-69
2022/07/29 13:43:46;;;;;;;3.85;2.78;;;;;;;;;;5049394;28;20043;-70
2022/07/29 13:46:16;;;;;;;5.20;3.28;;;;;;;;;;5049124;28;20422;-70
2022/07/29 13:48:44;;;;;;;3.10;2.83;;;;;;;;;;5049301;28;20123;-70
2022/07/29 13:51:11;;;;;;;5.97;3.40;;;;;;;;;;5049319;28;20124;-70
2022/07/29 13:53:39;;;;;;;3.72;2.97;;;;;;;;;;5048462;28;20098;-70
2022/07/29 13:56:07;;;;;;;4.07;3.05;;;;;;;;;;5116690;27;20410;-70
2022/07/29 13:58:34;;;;;;;7.05;3.85;;;;;;;;;;5049530;28;20521;-70
2022/07/29 14:01:02;;;;;;;5.45;3.17;;;;;;;;;;5049516;28;20045;-70
2022/07/29 14:03:30;;;;;;;4.18;2.70;;;;;;;;;;5049289;28;20490;-70
2022/07/29 14:05:59;;;;;;;7.32;2.72;;;;;;;;;;5046168;28;20061;-70
2022/07/29 14:08:27;;;;;;;6.63;3.55;;;;;;;;;;5048816;28;20048;-70
2022/07/29 14:10:55;;;;;;;3.95;3.15;;;;;;;;;;5049077;28;20045;-73
2022/07/29 14:13:22;;;;;;;5.18;3.55;;;;;;;;;;5048939;28;20037;-70
2022/07/29 14:15:52;;;;;;;9.60;4.63;;;;;;;;;;5101042;28;20077;-70
2022/07/29 14:18:20;;;;;;;4.78;3.17;;;;;;;;;;5116488;28;20112;-70
2022/07/29 14:20:48;;;;;;;8.27;3.75;;;;;;;;;;5117615;28;20045;-70
2022/07/29 14:23:15;;;;;;;5.35;3.35;;;;;;;;;;5048835;28;20037;-69
2022/07/29 14:25:46;;;;;;;3.53;3.20;;;;;;;;;;5048541;28;20379;-73
2022/07/29 14:28:15;;;;;;;10.52;4.63;;;;;;;;;;5049014;28;20047;-76
2022/07/29 14:30:43;;;;;;;6.18;4.00;;;;;;;;;;5098790;28;20132;-73
2022/07/29 14:33:10;;;;;;;7.20;3.45;;;;;;;;;;5112779;28;20410;-72
2022/07/29 14:35:38;;;;;;;4.65;3.80;;;;;;;;;;5047759;28;20093;-73
2022/07/29 14:38:06;;;;;;;6.55;4.10;;;;;;;;;;5047611;28;20480;-72
2022/07/29 14:40:34;;;;;;;5.88;3.80;;;;;;;;;;5047812;28;20402;-73
2022/07/29 14:43:02;;;;;;;6.75;3.60;;;;;;;;;;5047815;28;20033;-72
2022/07/29 14:45:30;;;;;;;9.00;4.63;;;;;;;;;;5115824;28;20053;-72
2022/07/29 14:47:58;;;;;;;11.25;4.43;;;;;;;;;;5047572;27;20093;-72
2022/07/29 14:50:26;;;;;;;5.68;4.00;;;;;;;;;;5048351;28;20123;-73
2022/07/29 14:52:58;;;;;;;7.50;3.72;;;;;;;;;;5048453;28;20410;-72
2022/07/29 14:55:26;;;;;;;7.15;4.00;;;;;;;;;;5048489;28;20044;-73
2022/07/29 14:57:54;;;;;;;4.63;3.50;;;;;;;;;;5046999;28;20037;-73
2022/07/29 15:00:35;;;;;;;5.97;3.28;;;;;;;;;;5046185;28;20037;-72
2022/07/29 15:03:03;;;;;;;4.85;3.20;;;;;;;;;;5085414;28;20035;-72
2022/07/29 15:05:32;;;;;;;6.70;6.00;;;;;;;;;;5088009;28;20135;-73